Terminal Aerodrome Forecast
Issued by NWS Binghamton, NY

Home | Current Version | Previous Version | Text Only | Print | Product List | Glossary On
Versions: 1 2 3 4 5 6 7 8 9 10 11 12 13 14 15 16 17 18
442
FTUS41 KBGM 052323
TAFSYR
TAF
KSYR 052323Z 0600/0624 03009KT P6SM OVC050
     FM060400 32006KT P6SM BKN070
     FM061400 06010KT P6SM BKN050
      TEMPO 0621/0624 -SHRA OVC035=

USA.gov is the U.S. government's official web portal to all federal, state and local government web resources and services.